Observations for BOSCOMBE DOWN, United Kingdom (EGDM)

EGDM 191950Z AUTO 20005KT //// // NCD 08/06 Q1004   
EGDM 191850Z AUTO 22005KT //// // NCD 08/07 Q1003   
EGDM 191750Z AUTO 27005KT //// // NCD 09/07 Q1003   
EGDM 191650Z AUTO 27007KT //// // NCD 11/06 Q1002   
EGDM 191550Z AUTO 26009KT //// // NCD 13/07 Q1002   
EGDM 191450Z AUTO 25009KT //// // BKN060/// 13/08 Q1001 
EGDM 191350Z AUTO 27011KT //// // BKN050/// 13/07 Q1001 
EGDM 191250Z AUTO 26010KT //// // BKN050/// 13/07 Q1001 
EGDM 191150Z AUTO 24012KT //// // SCT023/// BKN047/// 13/08 Q1000   
EGDM 191050Z AUTO 26011KT //// // NCD 12/07 Q1000   
EGDM 190950Z AUTO 24011KT //// // NCD 12/08 Q1000   
EGDM 190850Z AUTO 24010KT //// // NCD 11/08 Q1000   
EGDM 190750Z AUTO 23010KT //// // NCD 09/07 Q0999   
EGDM 190650Z AUTO 22007KT //// // NCD 08/07 Q0999   
EGDM 190550Z AUTO 23008KT //// // NCD 09/07 Q0998   
EGDM 190450Z AUTO 21005KT //// // NCD 08/07 Q0998   
EGDM 190350Z AUTO 21008KT //// // NCD 09/08 Q0998   
EGDM 190250Z AUTO 22007KT //// // SCT210/// 09/08 Q0998 
EGDM 190150Z AUTO 21005KT //// // SCT200/// 09/08 Q0998 
EGDM 190050Z AUTO 20007KT //// // BKN190/// 09/08 Q0998 
EGDM 182350Z AUTO 20008KT //// // FEW230/// 09/08 Q0998 
EGDM 182250Z AUTO 19008KT //// // FEW240/// 09/07 Q0998 
EGDM 182150Z AUTO 19007KT //// // FEW060/// 09/08 Q0999 
EGDM 182050Z AUTO 20009KT //// // SCT230/// 10/09 Q0999 
EGDM 181950Z AUTO 20012KT //// // FEW023/// 10/08 Q0999